Canebrake, West Virginia
Current Conditions -  °F | °C
As of 8:55 AM on Wednesday 26 Nov 2014 (Local Time) from KJFZ Reporting Station
Light Snow Light Snow  
Wind Chill: 35°   Ceiling: 500
Heat Index: 35°   Visibility: 0mi
Dew Point: 33°   Wind: 0mph
Humidity: 94%   Direction: NA
Pressure: 29.98"   Gusts: NA
Location:  37.2686°N, 81.6669°W
Report Text: KJFZ 261355Z AUTO 00000KT M1/4SM -SN OVC005 02/01 A2998 RMK AO2 P0008 T00150007
Loading
Personal Weather Stations






























Interactive Weather Map New forecast layout! Learn more

10-Day Weather Forecast

Advertisements
Track Severe Weather on mobile